createdAt,value
2019-03-18T00:00:33.858Z,3.7
2019-03-18T00:01:32.848Z,3.7
2019-03-18T00:02:32.997Z,3.7
2019-03-18T00:03:33.142Z,3.3
2019-03-18T00:04:33.313Z,3.9
2019-03-18T00:05:33.304Z,3.9
2019-03-18T00:06:33.325Z,3.9
2019-03-18T00:07:33.308Z,3.7
2019-03-18T00:08:33.456Z,3.6
2019-03-18T00:09:34.629Z,3.7
2019-03-18T00:10:33.639Z,3.9
2019-03-18T00:11:33.658Z,3.9
2019-03-18T00:12:33.646Z,4.1
2019-03-18T00:13:33.858Z,4.1
2019-03-18T00:14:33.872Z,4.7
2019-03-18T00:15:33.876Z,4
2019-03-18T00:16:34.042Z,4.4
2019-03-18T00:17:34.063Z,4.1
2019-03-18T00:18:34.054Z,4.1
2019-03-18T00:19:34.064Z,4
2019-03-18T00:20:34.044Z,4.1
2019-03-18T00:21:34.228Z,4.6
2019-03-18T00:22:34.238Z,3.9
2019-03-18T00:23:34.202Z,4.3
2019-03-18T00:24:34.383Z,4.2
2019-03-18T00:25:34.365Z,4.4
2019-03-18T00:26:34.519Z,4.9
2019-03-18T00:27:34.510Z,5.1
2019-03-18T00:28:34.529Z,4.5
2019-03-18T00:29:34.647Z,4.1
2019-03-18T00:30:34.637Z,4.4
2019-03-18T00:31:34.837Z,4.3
2019-03-18T00:32:34.821Z,4.5
2019-03-18T00:33:34.979Z,4.2
2019-03-18T00:34:35.016Z,4.4
2019-03-18T00:35:35.006Z,4.6
2019-03-18T00:36:34.997Z,4.4
2019-03-18T00:37:34.992Z,4.6
2019-03-18T00:38:34.982Z,4.4
2019-03-18T00:39:35.023Z,4.5
2019-03-18T00:40:35.008Z,4.6
2019-03-18T00:41:36.149Z,4.7
2019-03-18T00:42:35.304Z,4.5
2019-03-18T00:43:35.452Z,4.3
2019-03-18T00:44:35.658Z,4.8
2019-03-18T00:45:35.646Z,4.4
2019-03-18T00:46:36.797Z,4.3
2019-03-18T00:47:35.794Z,5
2019-03-18T00:48:35.951Z,4.8
2019-03-18T00:49:36.154Z,4.1
2019-03-18T00:50:36.148Z,4.4
2019-03-18T00:51:36.164Z,4.2
2019-03-18T00:52:36.191Z,4.2
2019-03-18T00:53:36.157Z,4.4
2019-03-18T00:54:36.377Z,4.2
2019-03-18T00:55:36.360Z,4.6
2019-03-18T00:56:36.518Z,4
2019-03-18T00:57:36.506Z,3.8
2019-03-18T00:58:36.655Z,4.1
2019-03-18T00:59:36.847Z,4.1
2019-03-18T01:00:36.838Z,4.3
2019-03-18T01:01:36.844Z,4.5
2019-03-18T01:02:36.833Z,4.3
2019-03-18T01:03:36.997Z,4.3
2019-03-18T01:04:37.057Z,4.2
2019-03-18T01:05:37.068Z,4.3
2019-03-18T01:06:37.057Z,4.8
2019-03-18T01:07:37.209Z,4.3
2019-03-18T01:08:37.384Z,4.6
2019-03-18T01:09:37.553Z,4.4
2019-03-18T01:10:37.526Z,4.6
2019-03-18T01:11:37.539Z,4.6
2019-03-18T01:12:37.528Z,4.7
2019-03-18T01:13:37.529Z,4.4
2019-03-18T01:14:37.833Z,4.6
2019-03-18T01:15:37.827Z,4.6
2019-03-18T01:16:37.983Z,4.6
2019-03-18T01:17:37.962Z,4.6
2019-03-18T01:18:37.993Z,4.8
2019-03-18T01:19:38.303Z,4.4
2019-03-18T01:20:38.128Z,4.6
2019-03-18T01:21:38.122Z,4.9
2019-03-18T01:22:38.119Z,5
2019-03-18T01:23:38.127Z,4.8
2019-03-18T01:24:38.103Z,4.8
2019-03-18T01:25:38.159Z,5.2
2019-03-18T01:26:38.156Z,4.7
2019-03-18T01:27:38.160Z,4.9
2019-03-18T01:28:38.312Z,5
2019-03-18T01:29:38.490Z,5.2
2019-03-18T01:30:38.535Z,5.1
2019-03-18T01:31:38.511Z,4.8
2019-03-18T01:32:38.656Z,5.3
2019-03-18T01:33:38.808Z,5.1
2019-03-18T01:34:38.961Z,5.2
2019-03-18T01:35:40.214Z,5.2
2019-03-18T01:36:39.296Z,5.6
2019-03-18T01:37:39.370Z,5.6
2019-03-18T01:38:39.374Z,5.3
2019-03-18T01:39:39.386Z,5.2
2019-03-18T01:40:39.403Z,5.5
2019-03-18T01:41:39.410Z,5.5
2019-03-18T01:42:39.397Z,5.5
2019-03-18T01:43:39.414Z,5.6
2019-03-18T01:44:39.403Z,6.1
2019-03-18T01:45:40.824Z,5
2019-03-18T01:46:39.529Z,5.6
2019-03-18T01:47:39.552Z,5.9
2019-03-18T01:48:39.563Z,5.8
2019-03-18T01:49:39.550Z,5.3
2019-03-18T01:50:39.574Z,5.8
2019-03-18T01:51:39.592Z,5.6
2019-03-18T01:52:39.600Z,5.6
2019-03-18T01:53:39.679Z,5.6
2019-03-18T01:54:39.673Z,5.4
2019-03-18T01:55:39.844Z,5.8
2019-03-18T01:56:39.853Z,5.4
2019-03-18T01:57:39.843Z,5.8
2019-03-18T01:58:40.000Z,5.4
2019-03-18T01:59:40.015Z,5.8
2019-03-18T02:00:40.059Z,5.1
2019-03-18T02:01:40.051Z,5.7
2019-03-18T02:02:40.082Z,5.4
2019-03-18T02:03:40.092Z,5.6
2019-03-18T02:04:40.089Z,5
2019-03-18T02:05:40.104Z,5.6
2019-03-18T02:06:40.098Z,5.5
2019-03-18T02:07:40.116Z,5
2019-03-18T02:08:41.103Z,5.5
2019-03-18T02:09:40.144Z,5.3
2019-03-18T02:10:40.178Z,5.5
2019-03-18T02:11:40.183Z,5.5
2019-03-18T02:12:40.197Z,5.7
2019-03-18T02:13:40.176Z,5.8
2019-03-18T02:14:40.332Z,5.5
2019-03-18T02:15:52.324Z,5.8
2019-03-18T02:16:41.322Z,5.3
2019-03-18T02:17:40.322Z,5.6
2019-03-18T02:18:40.342Z,5.2
2019-03-18T02:19:40.361Z,5.4
2019-03-18T02:20:40.547Z,5.6
2019-03-18T02:21:40.539Z,5.9
2019-03-18T02:22:40.530Z,5.9
2019-03-18T02:23:40.610Z,5.2
2019-03-18T02:24:40.633Z,5.3
2019-03-18T02:25:40.626Z,5.7
2019-03-18T02:26:40.603Z,5.8
2019-03-18T02:27:40.622Z,5.6
2019-03-18T02:28:40.613Z,5.7
2019-03-18T02:29:40.641Z,5.6
2019-03-18T02:30:40.674Z,5.7
2019-03-18T02:31:40.695Z,5.8
2019-03-18T02:32:40.709Z,5.9
2019-03-18T02:33:40.697Z,6
2019-03-18T02:34:40.710Z,5.8
2019-03-18T02:35:40.742Z,6.1
2019-03-18T02:36:40.733Z,6.2
2019-03-18T02:37:40.781Z,6.3
2019-03-18T02:38:40.797Z,6.1
2019-03-18T02:39:40.814Z,6
2019-03-18T02:40:40.847Z,6.2
2019-03-18T02:41:40.842Z,6.8
2019-03-18T02:42:40.860Z,6.4
2019-03-18T02:43:40.874Z,6.4
2019-03-18T02:44:40.864Z,6
2019-03-18T02:45:40.917Z,6.4
2019-03-18T02:46:40.925Z,6.5
2019-03-18T02:47:40.936Z,6.9
2019-03-18T02:48:40.954Z,7.2
2019-03-18T02:49:40.966Z,7.4
2019-03-18T02:50:41.041Z,7.2
2019-03-18T02:51:41.076Z,7
2019-03-18T02:52:41.091Z,7.5
2019-03-18T02:53:41.108Z,7.6
2019-03-18T02:54:41.138Z,7.8
2019-03-18T02:55:41.209Z,8.1
2019-03-18T02:56:41.278Z,7.9
2019-03-18T02:57:41.303Z,8.3
2019-03-18T02:58:41.318Z,8.6
2019-03-18T02:59:41.361Z,8.8
2019-03-18T03:00:41.410Z,9.5
2019-03-18T03:01:41.435Z,9.8
2019-03-18T03:02:41.546Z,9.9
2019-03-18T03:03:41.504Z,9.5
2019-03-18T03:04:41.687Z,10.1
2019-03-18T03:05:41.813Z,10.9
2019-03-18T03:06:41.905Z,10.8
2019-03-18T03:07:42.003Z,11.2
2019-03-18T03:08:42.097Z,10.9
2019-03-18T03:09:42.197Z,10.4
2019-03-18T03:10:42.330Z,11.1
2019-03-18T03:11:42.409Z,10.6
2019-03-18T03:12:42.574Z,10.8
2019-03-18T03:13:42.735Z,10.7
2019-03-18T03:14:42.664Z,10.7
2019-03-18T03:15:42.805Z,10.8
2019-03-18T03:16:42.833Z,10.1
2019-03-18T03:17:42.941Z,10.4
2019-03-18T03:18:43.025Z,10.5
2019-03-18T03:19:43.118Z,11.4
2019-03-18T03:20:43.252Z,10.9
2019-03-18T03:21:43.350Z,11.1
2019-03-18T03:22:43.463Z,11.4
2019-03-18T03:23:43.540Z,10.9
2019-03-18T03:24:43.634Z,11.3
2019-03-18T03:25:43.753Z,11.3
2019-03-18T03:26:43.871Z,10.5
2019-03-18T03:27:43.936Z,9.5
2019-03-18T03:28:43.955Z,8.9
2019-03-18T03:29:43.973Z,9.2
2019-03-18T03:30:44.014Z,8.8
2019-03-18T03:31:44.049Z,9.8
2019-03-18T03:32:44.100Z,9.7
2019-03-18T03:33:44.125Z,9.4
2019-03-18T03:34:44.204Z,10.3
2019-03-18T03:35:44.321Z,10.5
2019-03-18T03:36:44.447Z,9.9
2019-03-18T03:37:44.500Z,9.9
2019-03-18T03:38:44.590Z,10.4
2019-03-18T03:39:44.673Z,10.9
2019-03-18T03:40:44.793Z,11.8
2019-03-18T03:41:44.896Z,12.1
2019-03-18T03:42:45.003Z,11.8
2019-03-18T03:43:45.089Z,11.3
2019-03-18T03:44:45.181Z,11.7
2019-03-18T03:45:45.306Z,11.1
2019-03-18T03:46:45.379Z,11.1
2019-03-18T03:47:45.480Z,11.3
2019-03-18T03:48:45.583Z,11.3
2019-03-18T03:49:45.681Z,11.3
2019-03-18T03:50:45.814Z,11.8
2019-03-18T03:51:45.922Z,12.3
2019-03-18T03:52:46.017Z,12.3
2019-03-18T03:53:46.119Z,12.1
2019-03-18T03:54:46.225Z,12.9
2019-03-18T03:55:46.469Z,12.5
2019-03-18T03:56:46.399Z,12
2019-03-18T03:57:46.497Z,12.5
2019-03-18T03:58:46.607Z,12.6
2019-03-18T03:59:46.702Z,13.8
2019-03-18T04:00:46.849Z,13.7
2019-03-18T04:01:46.984Z,14.1
2019-03-18T04:02:47.110Z,13.3
2019-03-18T04:03:47.203Z,13.4
2019-03-18T04:04:47.307Z,14.4
2019-03-18T04:05:47.451Z,14
2019-03-18T04:06:47.551Z,15.2
2019-03-18T04:07:47.658Z,14.7
2019-03-18T04:08:47.765Z,15.3
2019-03-18T04:09:47.862Z,15.6
2019-03-18T04:10:48.029Z,15.2
2019-03-18T04:11:47.969Z,16.200001
2019-03-18T04:12:48.067Z,16.6
2019-03-18T04:13:48.237Z,16.700001
2019-03-18T04:14:48.270Z,16.5
2019-03-18T04:15:48.423Z,16.799999
2019-03-18T04:17:00.594Z,17.299999
2019-03-18T04:17:49.503Z,18.299999
2019-03-18T04:18:48.535Z,16.700001
2019-03-18T04:19:48.632Z,17.200001
2019-03-18T04:20:48.791Z,17.4
2019-03-18T04:21:50.492Z,17.799999
2019-03-18T04:22:48.804Z,16.6
2019-03-18T04:23:48.912Z,17.200001
2019-03-18T04:24:49.027Z,16.799999
2019-03-18T04:25:49.216Z,17.5
2019-03-18T04:26:49.162Z,17.299999
2019-03-18T04:27:49.269Z,18.200001
2019-03-18T04:28:49.399Z,17.9
2019-03-18T04:29:49.480Z,17.5
2019-03-18T04:30:49.650Z,17.299999
2019-03-18T04:31:49.604Z,16.299999
2019-03-18T04:32:49.717Z,16.9
2019-03-18T04:33:49.722Z,16.4
2019-03-18T04:34:49.820Z,17
2019-03-18T04:35:49.938Z,17.700001
2019-03-18T04:36:49.926Z,17.4
2019-03-18T04:37:50.054Z,16.799999
2019-03-18T04:38:50.223Z,17.700001
2019-03-18T04:39:50.170Z,18.1
2019-03-18T04:40:50.266Z,18
2019-03-18T04:41:50.393Z,17.1
2019-03-18T04:42:50.493Z,16.799999
2019-03-18T04:43:50.607Z,17.5
2019-03-18T04:44:50.743Z,17.299999
2019-03-18T04:45:50.842Z,17.6
2019-03-18T04:46:50.978Z,18.5
2019-03-18T04:47:51.080Z,18.6
2019-03-18T04:48:51.190Z,19.1
2019-03-18T04:49:51.282Z,20.200001
2019-03-18T04:50:51.375Z,18.9
2019-03-18T04:51:51.539Z,19.5
2019-03-18T04:52:51.624Z,20.299999
2019-03-18T04:53:51.756Z,20.4
2019-03-18T04:54:52.022Z,20.200001
2019-03-18T04:55:51.976Z,20.1
2019-03-18T04:56:52.113Z,20
2019-03-18T04:57:52.240Z,20.700001
2019-03-18T04:58:52.365Z,20.9
2019-03-18T04:59:52.468Z,21.6
2019-03-18T05:00:52.552Z,22.1
2019-03-18T05:01:52.681Z,21
2019-03-18T05:02:52.774Z,21.1
2019-03-18T05:03:52.875Z,21.200001
2019-03-18T05:04:52.975Z,22
2019-03-18T05:05:53.100Z,22
2019-03-18T05:06:53.287Z,22.9
2019-03-18T05:07:53.365Z,24.9
2019-03-18T05:08:53.488Z,22.9
2019-03-18T05:09:53.587Z,23.700001
2019-03-18T05:10:53.715Z,23.299999
2019-03-18T05:11:53.822Z,24.200001
2019-03-18T05:12:53.917Z,23.5
2019-03-18T05:13:54.081Z,22.1
2019-03-18T05:14:54.129Z,24.1
2019-03-18T05:15:54.249Z,24.299999
2019-03-18T05:16:54.363Z,23.700001
2019-03-18T05:17:54.470Z,22.6
2019-03-18T05:18:54.650Z,23.700001
2019-03-18T05:19:54.578Z,23.5
2019-03-18T05:20:54.669Z,23.799999
2019-03-18T05:21:54.779Z,24.200001
2019-03-18T05:22:54.883Z,23.6
2019-03-18T05:23:54.972Z,22.700001
2019-03-18T05:24:55.073Z,24.200001
2019-03-18T05:25:55.177Z,25.799999
2019-03-18T05:26:55.317Z,25
2019-03-18T05:27:55.484Z,24.5
2019-03-18T05:28:55.528Z,24.4
2019-03-18T05:29:55.634Z,24.5
2019-03-18T05:30:55.731Z,24.4
2019-03-18T05:31:55.859Z,24.700001
2019-03-18T05:32:55.959Z,25
2019-03-18T05:33:56.056Z,24.6
2019-03-18T05:34:56.152Z,25.9
2019-03-18T05:35:56.291Z,25.299999
2019-03-18T05:36:56.410Z,25.1
2019-03-18T05:37:56.512Z,24.4
2019-03-18T05:38:56.631Z,24.6
2019-03-18T05:39:56.720Z,24.9
2019-03-18T05:40:56.867Z,25.299999
2019-03-18T05:41:57.049Z,26.1
2019-03-18T05:42:57.055Z,25.6
2019-03-18T05:43:57.170Z,24.5
2019-03-18T05:44:57.358Z,25.299999
2019-03-18T05:45:57.339Z,25.9
2019-03-18T05:46:57.519Z,25.9
2019-03-18T05:47:57.500Z,25.9
2019-03-18T05:48:57.626Z,24.9
2019-03-18T05:49:57.760Z,26
2019-03-18T05:50:57.758Z,24.9
2019-03-18T05:51:57.820Z,24.9
2019-03-18T05:52:57.861Z,25.9
2019-03-18T05:53:58.904Z,26.5
2019-03-18T05:54:57.987Z,26.700001
2019-03-18T05:55:58.031Z,26.1
2019-03-18T05:56:58.085Z,25.700001
2019-03-18T05:57:59.120Z,25.1
2019-03-18T05:58:58.152Z,27.9
2019-03-18T05:59:58.167Z,26.799999
2019-03-18T06:00:58.315Z,28.200001
2019-03-18T06:01:58.473Z,24.9
2019-03-18T06:02:58.431Z,26.799999
2019-03-18T06:03:58.408Z,29.700001
2019-03-18T06:04:58.493Z,30.4
2019-03-18T06:05:58.524Z,27.799999
2019-03-18T06:06:58.582Z,27.299999
2019-03-18T06:07:58.623Z,26.299999
2019-03-18T06:08:58.663Z,27.9
2019-03-18T06:09:58.714Z,26.9
2019-03-18T06:10:58.750Z,27.5
2019-03-18T06:11:58.818Z,24.1
2019-03-18T06:12:58.855Z,23.5
2019-03-18T06:13:58.886Z,23
2019-03-18T06:14:58.917Z,26.1
2019-03-18T06:15:58.950Z,26.6
2019-03-18T06:16:59.017Z,26.799999
2019-03-18T06:17:59.054Z,26
2019-03-18T06:19:00.244Z,24.4
2019-03-18T06:19:59.130Z,21.200001
2019-03-18T06:20:59.172Z,21.299999
2019-03-18T06:21:59.245Z,21
2019-03-18T06:22:59.286Z,21.4
2019-03-18T06:23:59.327Z,21.6
2019-03-18T06:24:59.370Z,21.9
2019-03-18T06:25:59.412Z,19
2019-03-18T06:26:59.483Z,17.799999
2019-03-18T06:27:59.516Z,19.1
2019-03-18T06:28:59.583Z,18.1
2019-03-18T06:29:59.636Z,19.799999
2019-03-18T06:30:59.683Z,18.6
2019-03-18T06:31:59.748Z,20.200001
2019-03-18T06:32:59.813Z,19.700001
2019-03-18T06:33:59.850Z,20.299999
2019-03-18T06:34:59.892Z,22.200001
2019-03-18T06:35:59.921Z,22.4
2019-03-18T06:36:59.981Z,23.4
2019-03-18T06:38:00.048Z,25.200001
2019-03-18T06:39:00.114Z,24.700001
2019-03-18T06:40:00.261Z,25.9
2019-03-18T06:41:00.177Z,25.700001
2019-03-18T06:42:00.226Z,26.299999
2019-03-18T06:43:00.269Z,27.700001
2019-03-18T06:44:00.324Z,27.1
2019-03-18T06:45:00.371Z,29.6
2019-03-18T06:46:00.402Z,30
2019-03-18T06:47:00.470Z,30.6
2019-03-18T06:48:05.031Z,31.200001
2019-03-18T06:49:01.517Z,30.700001
2019-03-18T06:50:00.553Z,29.9
2019-03-18T06:51:00.598Z,32.700001
2019-03-18T06:52:00.675Z,31.799999
2019-03-18T06:53:00.704Z,30.700001
2019-03-18T06:54:00.753Z,31.4
2019-03-18T06:55:00.809Z,30.4
2019-03-18T06:56:00.855Z,31.6
2019-03-18T06:57:00.943Z,29.200001
2019-03-18T06:58:00.977Z,29.4
2019-03-18T06:59:01.050Z,30.6
2019-03-18T07:00:01.096Z,29.700001
2019-03-18T07:01:01.120Z,29.299999
2019-03-18T07:02:01.250Z,29.799999
2019-03-18T07:03:01.306Z,28.299999
2019-03-18T07:04:01.340Z,30.200001
2019-03-18T07:05:01.378Z,29.5
2019-03-18T07:06:01.414Z,29.299999
2019-03-18T07:07:01.495Z,26.700001
2019-03-18T07:08:01.536Z,26.799999
2019-03-18T07:09:01.572Z,26.6
2019-03-18T07:10:01.634Z,25.799999
2019-03-18T07:11:01.664Z,26.6
2019-03-18T07:12:01.895Z,27.200001
2019-03-18T07:13:01.820Z,27
2019-03-18T07:14:01.859Z,27.6
2019-03-18T07:15:01.891Z,28.4
2019-03-18T07:16:01.927Z,26.799999
2019-03-18T07:17:02.003Z,26.700001
2019-03-18T07:18:02.056Z,26.6
2019-03-18T07:19:03.080Z,27.299999
2019-03-18T07:20:02.145Z,25.6
2019-03-18T07:21:03.180Z,26.4
2019-03-18T07:22:02.257Z,25.5
2019-03-18T07:23:02.295Z,24.200001
2019-03-18T07:24:02.331Z,23.4
2019-03-18T07:25:02.370Z,24.700001
2019-03-18T07:26:02.421Z,25.1
2019-03-18T07:27:02.524Z,23.4
2019-03-18T07:28:02.580Z,22.700001
2019-03-18T07:29:02.631Z,23.5
2019-03-18T07:30:02.676Z,23.299999
2019-03-18T07:31:02.775Z,22.799999
2019-03-18T07:32:02.875Z,23.799999
2019-03-18T07:33:02.936Z,22.6
2019-03-18T07:34:02.964Z,23.1
2019-03-18T07:35:03.002Z,20.4
2019-03-18T07:36:03.037Z,21.6
2019-03-18T07:37:03.129Z,20.299999
2019-03-18T07:38:03.172Z,20.4
2019-03-18T07:39:03.218Z,19.799999
2019-03-18T07:40:03.254Z,18.4
2019-03-18T07:41:03.289Z,17.4
2019-03-18T07:42:03.371Z,18.1
2019-03-18T07:43:03.404Z,17.799999
2019-03-18T07:44:03.454Z,17.4
2019-03-18T07:45:03.495Z,15.9
2019-03-18T07:46:03.554Z,14.7
2019-03-18T07:47:03.685Z,15.6
2019-03-18T07:48:06.298Z,16
2019-03-18T07:49:04.765Z,14.7
2019-03-18T07:50:03.863Z,14
2019-03-18T07:51:03.884Z,13.5
2019-03-18T07:52:04.034Z,14.3
2019-03-18T07:53:03.941Z,14.8
2019-03-18T07:54:03.994Z,13.1
2019-03-18T07:55:04.081Z,13.7
2019-03-18T07:56:04.138Z,12.9
2019-03-18T07:57:04.169Z,13.1
2019-03-18T07:58:04.251Z,13.1
2019-03-18T07:59:04.323Z,13.9
2019-03-18T08:00:04.378Z,13.7
2019-03-18T08:01:04.421Z,13.8
2019-03-18T08:02:04.464Z,14
2019-03-18T08:03:04.522Z,13.8
2019-03-18T08:04:04.553Z,13.7
2019-03-18T08:05:04.638Z,13.4
2019-03-18T08:06:04.676Z,13.6
2019-03-18T08:07:04.722Z,13.6
2019-03-18T08:08:05.795Z,13.2
2019-03-18T08:09:04.824Z,12.8
2019-03-18T08:10:04.865Z,12.2
2019-03-18T08:11:04.925Z,12.5
2019-03-18T08:12:04.991Z,11.9
2019-03-18T08:13:05.065Z,11.7
2019-03-18T08:14:05.106Z,11.6
2019-03-18T08:15:05.170Z,12.1
2019-03-18T08:16:05.217Z,11.2
2019-03-18T08:17:05.256Z,12
2019-03-18T08:18:05.322Z,11.6
2019-03-18T08:19:05.359Z,11.4
2019-03-18T08:20:05.428Z,11.6
2019-03-18T08:21:05.485Z,11.5
2019-03-18T08:22:05.545Z,10.7
2019-03-18T08:23:05.654Z,11.6
2019-03-18T08:24:05.700Z,9.9
2019-03-18T08:25:05.763Z,10.2
2019-03-18T08:26:05.827Z,9.4
2019-03-18T08:27:05.884Z,9.4
2019-03-18T08:28:06.004Z,10.4
2019-03-18T08:29:06.042Z,9.4
2019-03-18T08:30:06.136Z,8.7
2019-03-18T08:31:06.183Z,7.8
2019-03-18T08:32:06.274Z,8.3
2019-03-18T08:33:06.425Z,8.7
2019-03-18T08:34:06.457Z,8.9
2019-03-18T08:35:06.503Z,8.5
2019-03-18T08:36:06.579Z,8
2019-03-18T08:37:06.626Z,8.2
2019-03-18T08:38:06.689Z,8.4
2019-03-18T08:39:06.744Z,8.2
2019-03-18T08:40:07.338Z,8.3
2019-03-18T08:41:06.879Z,7.8
2019-03-18T08:42:06.917Z,8
2019-03-18T08:43:06.985Z,7.7
2019-03-18T08:44:07.026Z,7.2
2019-03-18T08:45:07.067Z,7.2
2019-03-18T08:46:07.196Z,7.1
2019-03-18T08:47:07.258Z,7.4
2019-03-18T08:48:07.331Z,6.8
2019-03-18T08:49:07.393Z,7.7
2019-03-18T08:50:07.461Z,7.4
2019-03-18T08:51:08.508Z,6.8
2019-03-18T08:52:07.538Z,7.1
2019-03-18T08:53:07.589Z,6.9
2019-03-18T08:54:07.628Z,6.6
2019-03-18T08:55:07.684Z,6.7
2019-03-18T08:56:07.721Z,6.7
2019-03-18T08:57:07.762Z,6.5
2019-03-18T08:58:07.841Z,6.1
2019-03-18T08:59:07.872Z,6.4
2019-03-18T09:00:07.904Z,6.5
2019-03-18T09:01:07.946Z,6
2019-03-18T09:02:07.984Z,6.2
2019-03-18T09:03:08.072Z,6.3
2019-03-18T09:04:08.108Z,6.6
2019-03-18T09:05:08.157Z,5.5
2019-03-18T09:06:08.192Z,5.4
2019-03-18T09:07:08.223Z,5.9
2019-03-18T09:08:08.291Z,5.8
2019-03-18T09:09:08.358Z,5.7
2019-03-18T09:10:08.444Z,5.7
2019-03-18T09:11:08.497Z,5.4
2019-03-18T09:12:08.542Z,5.8
2019-03-18T09:13:08.607Z,5.8
2019-03-18T09:14:08.656Z,5.7
2019-03-18T09:15:08.697Z,5.3
2019-03-18T09:16:08.743Z,5.7
2019-03-18T09:17:08.784Z,5.5
2019-03-18T09:18:08.866Z,5.3
2019-03-18T09:19:09.367Z,4.9
2019-03-18T09:20:08.929Z,5.2
2019-03-18T09:21:08.995Z,5.3
2019-03-18T09:22:09.037Z,5.5
2019-03-18T09:23:09.081Z,5.1
2019-03-18T09:24:09.129Z,4.7
2019-03-18T09:25:09.171Z,4.9
2019-03-18T09:26:09.222Z,4.7
2019-03-18T09:27:09.241Z,4.6
2019-03-18T09:28:09.318Z,4.2
2019-03-18T09:29:09.354Z,5
2019-03-18T09:30:09.394Z,4.5
2019-03-18T09:31:09.475Z,4.5
2019-03-18T09:32:09.476Z,4.4
2019-03-18T09:33:09.533Z,4.6
2019-03-18T09:34:09.573Z,4.3
2019-03-18T09:35:09.607Z,4.7
2019-03-18T09:36:09.657Z,4.2
2019-03-18T09:37:09.700Z,4.4
2019-03-18T09:38:09.764Z,4.4
2019-03-18T09:39:09.805Z,4.1
2019-03-18T09:40:09.857Z,4.2
2019-03-18T09:41:09.892Z,4.7
2019-03-18T09:42:09.953Z,4.6
2019-03-18T09:43:10.057Z,4.2
2019-03-18T09:44:10.118Z,4.4
2019-03-18T09:45:10.189Z,4.7
2019-03-18T09:46:10.230Z,4.4
2019-03-18T09:47:10.276Z,4.1
2019-03-18T09:48:10.350Z,4.2
2019-03-18T09:49:20.888Z,4.7
2019-03-18T09:50:11.460Z,4.2
2019-03-18T09:51:10.483Z,4.3
2019-03-18T09:52:10.519Z,4.1
2019-03-18T09:53:10.590Z,4.3
2019-03-18T09:54:10.650Z,4.4
2019-03-18T09:55:10.692Z,4
2019-03-18T09:56:10.731Z,4.1
2019-03-18T09:57:10.830Z,4.6
2019-03-18T09:58:11.900Z,4.2
2019-03-18T09:59:10.940Z,4.5
2019-03-18T10:00:12.207Z,3.8
2019-03-18T10:01:11.005Z,4
2019-03-18T10:02:11.046Z,4.3
2019-03-18T10:03:11.108Z,4
2019-03-18T10:04:11.179Z,3.6
2019-03-18T10:05:11.245Z,3.6
2019-03-18T10:06:11.289Z,4.4
2019-03-18T10:07:11.332Z,3.9
2019-03-18T10:08:11.395Z,4
2019-03-18T10:09:11.441Z,4.3
2019-03-18T10:10:11.482Z,4.1
2019-03-18T10:11:11.524Z,4.4
2019-03-18T10:12:11.571Z,4.5
2019-03-18T10:13:11.657Z,4.3
2019-03-18T10:14:11.727Z,3.6
2019-03-18T10:15:11.766Z,4
2019-03-18T10:16:11.802Z,3.5
2019-03-18T10:17:11.807Z,4.2
2019-03-18T10:18:11.898Z,4.5
2019-03-18T10:19:11.966Z,4.1
2019-03-18T10:20:12.033Z,4.1
2019-03-18T10:21:12.071Z,4
2019-03-18T10:22:12.111Z,4.6
2019-03-18T10:23:13.185Z,4.1
2019-03-18T10:24:12.239Z,3.7
2019-03-18T10:25:12.246Z,4.1
2019-03-18T10:26:12.297Z,3.6
2019-03-18T10:27:12.360Z,4.1
2019-03-18T10:28:12.425Z,4.6
2019-03-18T10:29:13.478Z,4.6
2019-03-18T10:30:12.533Z,4
2019-03-18T10:31:12.593Z,4.1
2019-03-18T10:32:12.652Z,4.1
2019-03-18T10:33:12.754Z,4.5
2019-03-18T10:34:12.799Z,4.7
2019-03-18T10:35:12.854Z,4.2
2019-03-18T10:36:12.905Z,4.3
2019-03-18T10:37:12.956Z,4.5
2019-03-18T10:38:13.051Z,4.6
2019-03-18T10:39:13.108Z,4.6
2019-03-18T10:40:13.142Z,4
2019-03-18T10:41:13.182Z,4.3
2019-03-18T10:42:13.222Z,4.9
2019-03-18T10:43:13.444Z,5.2
2019-03-18T10:44:13.350Z,4.5
2019-03-18T10:45:13.399Z,4.4
2019-03-18T10:46:13.430Z,4.9
2019-03-18T10:47:13.482Z,4.1
2019-03-18T10:48:13.550Z,3.7
2019-03-18T10:49:13.592Z,4.3
2019-03-18T10:50:13.680Z,3.8
2019-03-18T10:51:13.723Z,3.8
2019-03-18T10:52:13.811Z,3.8
2019-03-18T10:53:13.908Z,4
2019-03-18T10:54:13.955Z,4.2
2019-03-18T10:55:14.011Z,4.3
2019-03-18T10:56:14.013Z,4.7
2019-03-18T10:57:14.067Z,4.2
2019-03-18T10:58:14.164Z,4.2
2019-03-18T10:59:15.236Z,3.8
2019-03-18T11:00:14.360Z,3.6
2019-03-18T11:01:14.480Z,4.3
2019-03-18T11:02:14.592Z,4.6
2019-03-18T11:03:14.719Z,4.2
2019-03-18T11:04:14.717Z,4.1
2019-03-18T11:05:14.757Z,4
2019-03-18T11:06:14.797Z,4.2
2019-03-18T11:07:14.850Z,3.7
2019-03-18T11:08:14.901Z,3.4
2019-03-18T11:09:14.991Z,3.3
2019-03-18T11:10:16.007Z,3
2019-03-18T11:11:15.049Z,3.5
2019-03-18T11:12:15.091Z,3.3
2019-03-18T11:13:15.190Z,3.3
2019-03-18T11:14:15.281Z,3.5
2019-03-18T11:15:15.350Z,3.4
2019-03-18T11:16:15.401Z,3.7
2019-03-18T11:17:15.436Z,3.4
2019-03-18T11:18:15.490Z,3.5
2019-03-18T11:19:15.569Z,3.8
2019-03-18T11:20:15.632Z,3.6
2019-03-18T11:21:15.663Z,3.4
2019-03-18T11:22:15.725Z,3.6
2019-03-18T11:23:15.788Z,3.1
2019-03-18T11:24:16.018Z,3.6
2019-03-18T11:25:15.909Z,3.4
2019-03-18T11:26:15.960Z,3.2
2019-03-18T11:27:15.997Z,3.1
2019-03-18T11:28:16.030Z,2.9
2019-03-18T11:29:16.101Z,3.5
2019-03-18T11:30:16.141Z,3.2
2019-03-18T11:31:16.188Z,3.3
2019-03-18T11:32:16.265Z,3.8
2019-03-18T11:33:16.368Z,2.9
2019-03-18T11:34:16.456Z,3.2
2019-03-18T11:35:16.576Z,3.1
2019-03-18T11:36:16.662Z,3.2
2019-03-18T11:37:16.744Z,3.6
2019-03-18T11:38:16.855Z,3.5
2019-03-18T11:39:16.972Z,3.4
2019-03-18T11:40:17.103Z,3.5
2019-03-18T11:41:17.542Z,3.7
2019-03-18T11:42:17.200Z,4
2019-03-18T11:43:17.325Z,3.6
2019-03-18T11:44:17.452Z,3.5
2019-03-18T11:45:17.527Z,3.6
2019-03-18T11:46:17.637Z,3.6
2019-03-18T11:47:17.730Z,3.7
2019-03-18T11:48:17.847Z,3.6
2019-03-18T11:49:17.993Z,3.7
2019-03-18T11:50:18.100Z,4.4
2019-03-18T11:51:18.173Z,3.7
2019-03-18T11:52:18.261Z,3.7
2019-03-18T11:53:18.282Z,4
2019-03-18T11:54:18.414Z,3.8
2019-03-18T11:55:18.401Z,3.6
2019-03-18T11:56:18.440Z,3.7
2019-03-18T11:57:18.482Z,3.8
2019-03-18T11:58:18.550Z,3.4
2019-03-18T11:59:20.781Z,3.6
2019-03-18T12:00:18.762Z,3.2
2019-03-18T12:01:18.876Z,3.4
2019-03-18T12:02:27.393Z,3.2
2019-03-18T12:03:19.979Z,3.6
2019-03-18T12:04:19.048Z,3.3
2019-03-18T12:05:19.121Z,3.6
2019-03-18T12:06:19.168Z,4
2019-03-18T12:07:19.276Z,3.9
2019-03-18T12:08:19.444Z,3.4
2019-03-18T12:09:19.583Z,3.7
2019-03-18T12:10:19.646Z,3.6
2019-03-18T12:11:19.732Z,4.1
2019-03-18T12:12:19.835Z,3.5
2019-03-18T12:13:19.881Z,3.1
2019-03-18T12:14:19.977Z,3.8
2019-03-18T12:15:21.481Z,3.9
2019-03-18T12:16:20.052Z,3.4
2019-03-18T12:17:20.095Z,3.6
2019-03-18T12:18:20.185Z,3.4
2019-03-18T12:19:23.019Z,3.7
2019-03-18T12:20:24.595Z,3.9
2019-03-18T12:21:21.391Z,3.7
2019-03-18T12:22:20.504Z,3.6
2019-03-18T12:23:20.608Z,3.7
2019-03-18T12:24:20.698Z,3.7
2019-03-18T12:25:20.808Z,3.8
2019-03-18T12:26:20.931Z,3.2
2019-03-18T12:27:21.055Z,3.9
2019-03-18T12:28:21.045Z,3.9
2019-03-18T12:29:21.167Z,4.3
2019-03-18T12:30:21.228Z,3.6
2019-03-18T12:31:21.263Z,3.6
2019-03-18T12:32:21.319Z,3.5
2019-03-18T12:33:21.401Z,3.5
2019-03-18T12:34:21.515Z,3.9
2019-03-18T12:35:21.665Z,3.6
2019-03-18T12:36:21.650Z,3.1
2019-03-18T12:37:21.736Z,3.5
2019-03-18T12:38:21.828Z,3.4
2019-03-18T12:39:24.506Z,3.2
2019-03-18T12:40:21.971Z,3.1
2019-03-18T12:41:22.012Z,3.3
2019-03-18T12:42:22.058Z,2.9
2019-03-18T12:43:22.139Z,3.2
2019-03-18T12:44:22.191Z,2.8
2019-03-18T12:45:22.235Z,3.2
2019-03-18T12:46:22.282Z,3
2019-03-18T12:47:22.384Z,3
2019-03-18T12:48:22.416Z,2.8
2019-03-18T12:49:22.504Z,3
2019-03-18T12:50:36.745Z,2.6
2019-03-18T12:51:23.554Z,2.9
2019-03-18T12:52:22.597Z,3.3
2019-03-18T12:53:22.698Z,3
2019-03-18T12:54:22.771Z,2.9
2019-03-18T12:55:22.820Z,3.1
2019-03-18T12:56:22.860Z,3
2019-03-18T12:57:22.939Z,2.8
2019-03-18T12:58:22.996Z,2.9
2019-03-18T12:59:23.057Z,2.7
2019-03-18T13:00:23.105Z,2.4
2019-03-18T13:01:23.184Z,2.7
2019-03-18T13:02:23.230Z,2.8
2019-03-18T13:03:23.275Z,2.9
2019-03-18T13:04:23.346Z,2.5
2019-03-18T13:05:23.356Z,2.5
2019-03-18T13:06:23.420Z,2.6
2019-03-18T13:07:23.460Z,2.7
2019-03-18T13:08:23.657Z,2.7
2019-03-18T13:09:23.619Z,2.4
2019-03-18T13:10:23.513Z,2.9
2019-03-18T13:11:23.644Z,2.8
2019-03-18T13:12:23.720Z,2.6
2019-03-18T13:13:23.777Z,2.8
2019-03-18T13:14:23.895Z,2.8
2019-03-18T13:15:23.978Z,2.9
2019-03-18T13:16:24.041Z,3.1
2019-03-18T13:17:24.105Z,3.1
2019-03-18T13:18:24.159Z,3.5
2019-03-18T13:19:24.299Z,3.3
2019-03-18T13:20:24.220Z,3.4
2019-03-18T13:21:24.301Z,3.5
2019-03-18T13:22:24.422Z,3.8
2019-03-18T13:23:24.507Z,3.6
2019-03-18T13:24:24.634Z,3.3